sensor_id;sensor_type;location;lat;lon;timestamp;temperature;humidity
37560;DHT22;23398;50.928;7.084;2023-03-15T00:01:16;5.60;68.40
37560;DHT22;23398;50.928;7.084;2023-03-15T00:03:43;5.70;68.60
37560;DHT22;23398;50.928;7.084;2023-03-15T00:06:10;5.70;68.60
37560;DHT22;23398;50.928;7.084;2023-03-15T00:08:36;5.80;68.60
37560;DHT22;23398;50.928;7.084;2023-03-15T00:11:02;5.90;68.70
37560;DHT22;23398;50.928;7.084;2023-03-15T00:13:28;6.00;69.50
37560;DHT22;23398;50.928;7.084;2023-03-15T00:15:57;6.00;68.70
37560;DHT22;23398;50.928;7.084;2023-03-15T00:18:24;6.10;68.90
37560;DHT22;23398;50.928;7.084;2023-03-15T00:20:50;6.20;68.80
37560;DHT22;23398;50.928;7.084;2023-03-15T00:23:16;6.30;68.90
37560;DHT22;23398;50.928;7.084;2023-03-15T00:25:45;6.40;68.90
37560;DHT22;23398;50.928;7.084;2023-03-15T00:28:12;6.40;68.80
37560;DHT22;23398;50.928;7.084;2023-03-15T00:30:37;6.50;68.60
37560;DHT22;23398;50.928;7.084;2023-03-15T00:33:03;6.60;68.70
37560;DHT22;23398;50.928;7.084;2023-03-15T00:35:30;6.60;68.40
37560;DHT22;23398;50.928;7.084;2023-03-15T00:37:56;6.70;68.40
37560;DHT22;23398;50.928;7.084;2023-03-15T00:40:23;6.80;68.30
37560;DHT22;23398;50.928;7.084;2023-03-15T00:42:49;6.80;68.10
37560;DHT22;23398;50.928;7.084;2023-03-15T00:45:19;6.90;68.00
37560;DHT22;23398;50.928;7.084;2023-03-15T00:47:51;6.90;67.90
37560;DHT22;23398;50.928;7.084;2023-03-15T00:50:18;7.00;67.90
37560;DHT22;23398;50.928;7.084;2023-03-15T00:52:43;7.10;67.70
37560;DHT22;23398;50.928;7.084;2023-03-15T00:55:11;7.10;67.60
37560;DHT22;23398;50.928;7.084;2023-03-15T00:57:41;7.20;67.70
37560;DHT22;23398;50.928;7.084;2023-03-15T01:00:13;7.20;67.50
37560;DHT22;23398;50.928;7.084;2023-03-15T01:02:39;7.30;67.50
37560;DHT22;23398;50.928;7.084;2023-03-15T01:05:06;7.30;67.30
37560;DHT22;23398;50.928;7.084;2023-03-15T01:07:32;7.30;67.20
37560;DHT22;23398;50.928;7.084;2023-03-15T01:10:02;7.30;67.10
37560;DHT22;23398;50.928;7.084;2023-03-15T01:12:29;7.30;67.20
37560;DHT22;23398;50.928;7.084;2023-03-15T01:14:57;7.40;67.40
37560;DHT22;23398;50.928;7.084;2023-03-15T01:17:23;7.40;67.60
37560;DHT22;23398;50.928;7.084;2023-03-15T01:19:48;7.40;67.90
37560;DHT22;23398;50.928;7.084;2023-03-15T01:22:16;7.40;68.20
37560;DHT22;23398;50.928;7.084;2023-03-15T01:24:42;7.50;68.50
37560;DHT22;23398;50.928;7.084;2023-03-15T01:27:07;7.50;68.70
37560;DHT22;23398;50.928;7.084;2023-03-15T01:29:33;7.50;68.70
37560;DHT22;23398;50.928;7.084;2023-03-15T01:31:58;7.60;69.10
37560;DHT22;23398;50.928;7.084;2023-03-15T01:34:24;7.60;69.30
37560;DHT22;23398;50.928;7.084;2023-03-15T01:36:50;7.60;69.50
37560;DHT22;23398;50.928;7.084;2023-03-15T01:39:19;7.60;69.60
37560;DHT22;23398;50.928;7.084;2023-03-15T01:41:45;7.60;69.70
37560;DHT22;23398;50.928;7.084;2023-03-15T01:44:15;7.70;70.00
37560;DHT22;23398;50.928;7.084;2023-03-15T01:46:41;7.60;70.10
37560;DHT22;23398;50.928;7.084;2023-03-15T01:49:10;7.70;70.40
37560;DHT22;23398;50.928;7.084;2023-03-15T01:51:56;7.70;70.40
37560;DHT22;23398;50.928;7.084;2023-03-15T01:54:42;7.70;71.60
37560;DHT22;23398;50.928;7.084;2023-03-15T01:57:34;7.70;70.80
37560;DHT22;23398;50.928;7.084;2023-03-15T02:00:07;7.70;70.90
37560;DHT22;23398;50.928;7.084;2023-03-15T02:02:40;7.70;70.80
37560;DHT22;23398;50.928;7.084;2023-03-15T02:05:13;7.70;71.00
37560;DHT22;23398;50.928;7.084;2023-03-15T02:07:42;7.80;71.10
37560;DHT22;23398;50.928;7.084;2023-03-15T02:12:54;7.70;71.50
37560;DHT22;23398;50.928;7.084;2023-03-15T02:15:21;7.70;71.70
37560;DHT22;23398;50.928;7.084;2023-03-15T02:17:47;7.70;71.90
37560;DHT22;23398;50.928;7.084;2023-03-15T02:23:10;7.60;72.70
37560;DHT22;23398;50.928;7.084;2023-03-15T02:28:41;7.60;73.20
37560;DHT22;23398;50.928;7.084;2023-03-15T02:31:07;7.50;72.30
37560;DHT22;23398;50.928;7.084;2023-03-15T02:36:21;7.50;72.90
37560;DHT22;23398;50.928;7.084;2023-03-15T02:38:48;7.40;73.30
37560;DHT22;23398;50.928;7.084;2023-03-15T02:41:17;7.40;73.00
37560;DHT22;23398;50.928;7.084;2023-03-15T02:43:45;7.30;73.30
37560;DHT22;23398;50.928;7.084;2023-03-15T02:46:12;7.30;73.30
37560;DHT22;23398;50.928;7.084;2023-03-15T02:48:40;7.20;73.30
37560;DHT22;23398;50.928;7.084;2023-03-15T02:51:07;7.20;73.40
37560;DHT22;23398;50.928;7.084;2023-03-15T02:53:40;7.10;73.40
37560;DHT22;23398;50.928;7.084;2023-03-15T02:56:06;7.00;73.30
37560;DHT22;23398;50.928;7.084;2023-03-15T02:58:32;7.00;74.10
37560;DHT22;23398;50.928;7.084;2023-03-15T03:00:57;7.00;73.30
37560;DHT22;23398;50.928;7.084;2023-03-15T03:03:23;6.90;73.40
37560;DHT22;23398;50.928;7.084;2023-03-15T03:05:48;6.90;73.50
37560;DHT22;23398;50.928;7.084;2023-03-15T03:08:14;6.80;73.50
37560;DHT22;23398;50.928;7.084;2023-03-15T03:10:41;6.80;73.70
37560;DHT22;23398;50.928;7.084;2023-03-15T03:13:06;6.70;73.80
37560;DHT22;23398;50.928;7.084;2023-03-15T03:15:32;6.70;74.20
37560;DHT22;23398;50.928;7.084;2023-03-15T03:17:58;6.60;74.40
37560;DHT22;23398;50.928;7.084;2023-03-15T03:20:23;6.60;74.70
37560;DHT22;23398;50.928;7.084;2023-03-15T03:22:49;6.60;74.70
37560;DHT22;23398;50.928;7.084;2023-03-15T03:25:15;6.60;75.00
37560;DHT22;23398;50.928;7.084;2023-03-15T03:27:40;6.50;75.10
37560;DHT22;23398;50.928;7.084;2023-03-15T03:30:08;6.50;75.30
37560;DHT22;23398;50.928;7.084;2023-03-15T03:32:34;6.50;75.70
37560;DHT22;23398;50.928;7.084;2023-03-15T03:35:00;6.50;75.80
37560;DHT22;23398;50.928;7.084;2023-03-15T03:37:26;6.50;76.10
37560;DHT22;23398;50.928;7.084;2023-03-15T03:39:51;6.50;76.20
37560;DHT22;23398;50.928;7.084;2023-03-15T03:42:17;6.50;76.30
37560;DHT22;23398;50.928;7.084;2023-03-15T03:44:43;6.50;76.30
37560;DHT22;23398;50.928;7.084;2023-03-15T03:47:08;6.50;76.40
37560;DHT22;23398;50.928;7.084;2023-03-15T03:49:34;6.50;76.70
37560;DHT22;23398;50.928;7.084;2023-03-15T03:51:59;6.50;76.80
37560;DHT22;23398;50.928;7.084;2023-03-15T03:54:26;6.50;76.90
37560;DHT22;23398;50.928;7.084;2023-03-15T03:56:51;6.50;76.90
37560;DHT22;23398;50.928;7.084;2023-03-15T03:59:17;6.50;77.00
37560;DHT22;23398;50.928;7.084;2023-03-15T04:01:43;6.50;77.00
37560;DHT22;23398;50.928;7.084;2023-03-15T04:04:09;6.60;77.20
37560;DHT22;23398;50.928;7.084;2023-03-15T04:06:39;6.50;77.10
37560;DHT22;23398;50.928;7.084;2023-03-15T04:09:13;6.60;77.20
37560;DHT22;23398;50.928;7.084;2023-03-15T04:11:40;6.60;77.30
37560;DHT22;23398;50.928;7.084;2023-03-15T04:14:10;6.50;77.10
37560;DHT22;23398;50.928;7.084;2023-03-15T04:16:36;6.60;77.20
37560;DHT22;23398;50.928;7.084;2023-03-15T04:19:02;6.60;77.00
37560;DHT22;23398;50.928;7.084;2023-03-15T04:21:28;6.50;76.60
37560;DHT22;23398;50.928;7.084;2023-03-15T04:24:00;6.50;76.50
37560;DHT22;23398;50.928;7.084;2023-03-15T04:26:27;6.50;76.80
37560;DHT22;23398;50.928;7.084;2023-03-15T04:28:57;6.50;77.20
37560;DHT22;23398;50.928;7.084;2023-03-15T04:31:23;6.50;77.60
37560;DHT22;23398;50.928;7.084;2023-03-15T04:33:53;6.50;77.40
37560;DHT22;23398;50.928;7.084;2023-03-15T04:36:19;6.50;77.50
37560;DHT22;23398;50.928;7.084;2023-03-15T04:38:45;6.50;77.50
37560;DHT22;23398;50.928;7.084;2023-03-15T04:41:12;6.50;77.60
37560;DHT22;23398;50.928;7.084;2023-03-15T04:43:38;6.50;77.70
37560;DHT22;23398;50.928;7.084;2023-03-15T04:46:04;6.50;77.80
37560;DHT22;23398;50.928;7.084;2023-03-15T04:48:29;6.50;77.80
37560;DHT22;23398;50.928;7.084;2023-03-15T04:50:55;6.50;78.00
37560;DHT22;23398;50.928;7.084;2023-03-15T04:53:21;6.50;78.00
37560;DHT22;23398;50.928;7.084;2023-03-15T04:55:46;6.50;77.90
37560;DHT22;23398;50.928;7.084;2023-03-15T04:58:12;6.50;77.60
37560;DHT22;23398;50.928;7.084;2023-03-15T05:00:37;6.50;77.20
37560;DHT22;23398;50.928;7.084;2023-03-15T05:03:03;6.50;77.10
37560;DHT22;23398;50.928;7.084;2023-03-15T05:05:31;6.50;77.10
37560;DHT22;23398;50.928;7.084;2023-03-15T05:07:57;6.50;77.30
37560;DHT22;23398;50.928;7.084;2023-03-15T05:10:23;6.40;77.20
37560;DHT22;23398;50.928;7.084;2023-03-15T05:12:50;6.50;77.40
37560;DHT22;23398;50.928;7.084;2023-03-15T05:15:16;6.40;77.40
37560;DHT22;23398;50.928;7.084;2023-03-15T05:17:41;6.40;77.50
37560;DHT22;23398;50.928;7.084;2023-03-15T05:20:12;6.40;77.60
37560;DHT22;23398;50.928;7.084;2023-03-15T05:22:39;6.40;77.70
37560;DHT22;23398;50.928;7.084;2023-03-15T05:25:05;6.40;77.90
37560;DHT22;23398;50.928;7.084;2023-03-15T05:27:32;6.40;77.90
37560;DHT22;23398;50.928;7.084;2023-03-15T05:29:59;6.40;78.00
37560;DHT22;23398;50.928;7.084;2023-03-15T05:32:31;6.30;78.00
37560;DHT22;23398;50.928;7.084;2023-03-15T05:35:00;6.30;78.10
37560;DHT22;23398;50.928;7.084;2023-03-15T05:37:26;6.40;78.00
37560;DHT22;23398;50.928;7.084;2023-03-15T05:39:51;6.40;78.10
37560;DHT22;23398;50.928;7.084;2023-03-15T05:42:17;6.40;78.10
37560;DHT22;23398;50.928;7.084;2023-03-15T05:44:49;6.40;78.20
37560;DHT22;23398;50.928;7.084;2023-03-15T05:47:15;6.40;78.20
37560;DHT22;23398;50.928;7.084;2023-03-15T05:49:41;6.30;78.10
37560;DHT22;23398;50.928;7.084;2023-03-15T05:52:06;6.40;78.10
37560;DHT22;23398;50.928;7.084;2023-03-15T05:54:32;6.40;77.90
37560;DHT22;23398;50.928;7.084;2023-03-15T05:56:57;6.30;77.80
37560;DHT22;23398;50.928;7.084;2023-03-15T05:59:23;6.30;77.90
37560;DHT22;23398;50.928;7.084;2023-03-15T06:01:48;6.30;78.00
37560;DHT22;23398;50.928;7.084;2023-03-15T06:04:14;6.30;78.10
37560;DHT22;23398;50.928;7.084;2023-03-15T06:06:39;6.30;78.30
37560;DHT22;23398;50.928;7.084;2023-03-15T06:09:05;6.40;78.60
37560;DHT22;23398;50.928;7.084;2023-03-15T06:11:31;6.30;78.50
37560;DHT22;23398;50.928;7.084;2023-03-15T06:13:56;6.30;78.70
37560;DHT22;23398;50.928;7.084;2023-03-15T06:16:22;6.30;78.90
37560;DHT22;23398;50.928;7.084;2023-03-15T06:18:47;6.30;79.00
37560;DHT22;23398;50.928;7.084;2023-03-15T06:21:13;6.30;79.00
37560;DHT22;23398;50.928;7.084;2023-03-15T06:23:38;6.30;79.00
37560;DHT22;23398;50.928;7.084;2023-03-15T06:26:04;6.30;78.90
37560;DHT22;23398;50.928;7.084;2023-03-15T06:28:29;6.30;79.00
37560;DHT22;23398;50.928;7.084;2023-03-15T06:30:55;6.30;79.00
37560;DHT22;23398;50.928;7.084;2023-03-15T06:33:20;6.40;79.00
37560;DHT22;23398;50.928;7.084;2023-03-15T06:35:46;6.40;79.10
37560;DHT22;23398;50.928;7.084;2023-03-15T06:38:11;6.40;80.00
37560;DHT22;23398;50.928;7.084;2023-03-15T06:40:38;6.40;79.30
37560;DHT22;23398;50.928;7.084;2023-03-15T06:43:04;6.40;79.40
37560;DHT22;23398;50.928;7.084;2023-03-15T06:45:31;6.40;79.50
37560;DHT22;23398;50.928;7.084;2023-03-15T06:47:57;6.50;79.80
37560;DHT22;23398;50.928;7.084;2023-03-15T06:50:23;6.50;79.80
37560;DHT22;23398;50.928;7.084;2023-03-15T06:52:48;6.50;79.80
37560;DHT22;23398;50.928;7.084;2023-03-15T06:55:14;6.60;79.80
37560;DHT22;23398;50.928;7.084;2023-03-15T06:57:43;6.60;79.80
37560;DHT22;23398;50.928;7.084;2023-03-15T07:00:10;6.60;79.70
37560;DHT22;23398;50.928;7.084;2023-03-15T07:02:36;6.70;79.90
37560;DHT22;23398;50.928;7.084;2023-03-15T07:05:03;6.70;80.20
37560;DHT22;23398;50.928;7.084;2023-03-15T07:07:29;6.70;80.50
37560;DHT22;23398;50.928;7.084;2023-03-15T07:09:54;6.80;80.70
37560;DHT22;23398;50.928;7.084;2023-03-15T07:12:20;6.80;80.70
37560;DHT22;23398;50.928;7.084;2023-03-15T07:14:46;6.90;80.60
37560;DHT22;23398;50.928;7.084;2023-03-15T07:17:11;6.90;80.30
37560;DHT22;23398;50.928;7.084;2023-03-15T07:19:37;7.00;80.10
37560;DHT22;23398;50.928;7.084;2023-03-15T07:22:03;7.00;80.00
37560;DHT22;23398;50.928;7.084;2023-03-15T07:24:28;7.10;80.10
37560;DHT22;23398;50.928;7.084;2023-03-15T07:26:55;7.20;80.20
37560;DHT22;23398;50.928;7.084;2023-03-15T07:29:23;7.20;80.20
37560;DHT22;23398;50.928;7.084;2023-03-15T07:31:49;7.30;80.10
37560;DHT22;23398;50.928;7.084;2023-03-15T07:34:16;7.40;80.00
37560;DHT22;23398;50.928;7.084;2023-03-15T07:36:42;7.40;79.60
37560;DHT22;23398;50.928;7.084;2023-03-15T07:39:07;7.50;79.20
37560;DHT22;23398;50.928;7.084;2023-03-15T07:41:33;7.50;78.80
37560;DHT22;23398;50.928;7.084;2023-03-15T07:43:58;7.60;78.60
37560;DHT22;23398;50.928;7.084;2023-03-15T07:46:24;7.60;78.60
37560;DHT22;23398;50.928;7.084;2023-03-15T07:48:50;7.60;78.80
37560;DHT22;23398;50.928;7.084;2023-03-15T07:51:15;7.70;79.10
37560;DHT22;23398;50.928;7.084;2023-03-15T07:53:41;7.80;79.40
37560;DHT22;23398;50.928;7.084;2023-03-15T07:56:07;7.90;79.50
37560;DHT22;23398;50.928;7.084;2023-03-15T07:58:33;7.90;79.30
37560;DHT22;23398;50.928;7.084;2023-03-15T08:00:58;8.00;79.10
37560;DHT22;23398;50.928;7.084;2023-03-15T08:03:24;8.10;78.50
37560;DHT22;23398;50.928;7.084;2023-03-15T08:05:51;8.10;77.90
37560;DHT22;23398;50.928;7.084;2023-03-15T08:08:17;8.20;77.30
37560;DHT22;23398;50.928;7.084;2023-03-15T08:10:43;8.20;76.60
37560;DHT22;23398;50.928;7.084;2023-03-15T08:13:09;8.30;76.30
37560;DHT22;23398;50.928;7.084;2023-03-15T08:15:35;8.30;76.20
37560;DHT22;23398;50.928;7.084;2023-03-15T08:18:01;8.30;75.90
37560;DHT22;23398;50.928;7.084;2023-03-15T08:20:27;8.30;75.90
37560;DHT22;23398;50.928;7.084;2023-03-15T08:22:53;8.30;76.10
37560;DHT22;23398;50.928;7.084;2023-03-15T08:25:22;8.30;76.60
37560;DHT22;23398;50.928;7.084;2023-03-15T08:27:49;8.40;77.70
37560;DHT22;23398;50.928;7.084;2023-03-15T08:30:16;8.50;78.90
37560;DHT22;23398;50.928;7.084;2023-03-15T08:32:43;8.70;80.10
37560;DHT22;23398;50.928;7.084;2023-03-15T08:35:10;8.90;82.40
37560;DHT22;23398;50.928;7.084;2023-03-15T08:37:37;9.40;86.00
37560;DHT22;23398;50.928;7.084;2023-03-15T08:40:03;9.90;86.70
37560;DHT22;23398;50.928;7.084;2023-03-15T08:42:37;10.60;83.30
37560;DHT22;23398;50.928;7.084;2023-03-15T08:45:04;11.10;78.70
37560;DHT22;23398;50.928;7.084;2023-03-15T08:47:32;11.60;76.00
37560;DHT22;23398;50.928;7.084;2023-03-15T08:50:06;11.90;74.50
37560;DHT22;23398;50.928;7.084;2023-03-15T08:52:32;12.40;74.80
37560;DHT22;23398;50.928;7.084;2023-03-15T08:54:58;12.80;75.00
37560;DHT22;23398;50.928;7.084;2023-03-15T08:57:23;13.40;73.40
37560;DHT22;23398;50.928;7.084;2023-03-15T08:59:54;13.80;71.00
37560;DHT22;23398;50.928;7.084;2023-03-15T09:02:20;14.30;70.10
37560;DHT22;23398;50.928;7.084;2023-03-15T09:04:47;14.70;68.20
37560;DHT22;23398;50.928;7.084;2023-03-15T09:07:13;15.10;65.60
37560;DHT22;23398;50.928;7.084;2023-03-15T09:09:40;15.30;64.10
37560;DHT22;23398;50.928;7.084;2023-03-15T09:12:06;15.50;62.20
37560;DHT22;23398;50.928;7.084;2023-03-15T09:14:32;15.60;60.60
37560;DHT22;23398;50.928;7.084;2023-03-15T09:16:57;15.60;59.60
37560;DHT22;23398;50.928;7.084;2023-03-15T09:19:23;15.60;59.30
37560;DHT22;23398;50.928;7.084;2023-03-15T09:21:48;15.60;59.40
37560;DHT22;23398;50.928;7.084;2023-03-15T09:24:14;15.60;59.90
37560;DHT22;23398;50.928;7.084;2023-03-15T09:26:39;15.80;60.40
37560;DHT22;23398;50.928;7.084;2023-03-15T09:29:05;15.90;60.10
37560;DHT22;23398;50.928;7.084;2023-03-15T09:31:33;16.30;61.80
37560;DHT22;23398;50.928;7.084;2023-03-15T09:33:58;16.80;62.80
37560;DHT22;23398;50.928;7.084;2023-03-15T09:36:24;17.30;60.70
37560;DHT22;23398;50.928;7.084;2023-03-15T09:38:49;17.80;58.80
37560;DHT22;23398;50.928;7.084;2023-03-15T09:41:44;18.10;58.40
37560;DHT22;23398;50.928;7.084;2023-03-15T09:46:55;18.90;57.50
37560;DHT22;23398;50.928;7.084;2023-03-15T09:52:28;20.40;58.60
37560;DHT22;23398;50.928;7.084;2023-03-15T09:55:00;21.50;58.80
37560;DHT22;23398;50.928;7.084;2023-03-15T09:57:47;22.50;58.50
37560;DHT22;23398;50.928;7.084;2023-03-15T10:00:19;23.50;54.30
37560;DHT22;23398;50.928;7.084;2023-03-15T10:02:55;24.00;51.60
37560;DHT22;23398;50.928;7.084;2023-03-15T10:05:36;24.40;49.30
37560;DHT22;23398;50.928;7.084;2023-03-15T10:08:08;24.70;49.40
37560;DHT22;23398;50.928;7.084;2023-03-15T10:10:39;25.00;49.30
37560;DHT22;23398;50.928;7.084;2023-03-15T10:18:38;26.80;48.50
37560;DHT22;23398;50.928;7.084;2023-03-15T10:21:14;27.30;46.40
37560;DHT22;23398;50.928;7.084;2023-03-15T10:23:51;27.70;43.70
37560;DHT22;23398;50.928;7.084;2023-03-15T10:26:23;27.50;41.40
37560;DHT22;23398;50.928;7.084;2023-03-15T10:28:50;27.20;40.80
37560;DHT22;23398;50.928;7.084;2023-03-15T10:31:23;26.60;40.50
37560;DHT22;23398;50.928;7.084;2023-03-15T10:33:50;25.90;40.10
37560;DHT22;23398;50.928;7.084;2023-03-15T10:36:18;25.20;40.50
37560;DHT22;23398;50.928;7.084;2023-03-15T10:38:45;24.50;40.70
37560;DHT22;23398;50.928;7.084;2023-03-15T10:41:13;24.00;41.30
37560;DHT22;23398;50.928;7.084;2023-03-15T10:43:39;23.40;41.20
37560;DHT22;23398;50.928;7.084;2023-03-15T10:46:21;22.90;41.40
37560;DHT22;23398;50.928;7.084;2023-03-15T10:49:08;22.40;41.80
37560;DHT22;23398;50.928;7.084;2023-03-15T10:51:43;21.90;41.20
37560;DHT22;23398;50.928;7.084;2023-03-15T10:54:15;21.40;41.50
37560;DHT22;23398;50.928;7.084;2023-03-15T10:59:23;20.50;41.50
37560;DHT22;23398;50.928;7.084;2023-03-15T11:02:11;20.10;41.80
37560;DHT22;23398;50.928;7.084;2023-03-15T11:04:49;19.70;42.00
37560;DHT22;23398;50.928;7.084;2023-03-15T11:07:24;19.30;42.70
37560;DHT22;23398;50.928;7.084;2023-03-15T11:09:58;18.80;42.80
37560;DHT22;23398;50.928;7.084;2023-03-15T11:12:29;18.40;42.70
37560;DHT22;23398;50.928;7.084;2023-03-15T11:15:04;18.00;43.60
37560;DHT22;23398;50.928;7.084;2023-03-15T11:17:32;17.50;44.20
37560;DHT22;23398;50.928;7.084;2023-03-15T11:20:48;17.20;45.00
37560;DHT22;23398;50.928;7.084;2023-03-15T11:22:50;16.90;45.70
37560;DHT22;23398;50.928;7.084;2023-03-15T11:25:17;16.70;46.50
37560;DHT22;23398;50.928;7.084;2023-03-15T11:27:44;16.50;46.50
37560;DHT22;23398;50.928;7.084;2023-03-15T11:30:16;16.40;46.40
37560;DHT22;23398;50.928;7.084;2023-03-15T11:32:42;16.40;46.30
37560;DHT22;23398;50.928;7.084;2023-03-15T11:35:21;16.30;46.20
37560;DHT22;23398;50.928;7.084;2023-03-15T11:38:03;16.30;47.30
37560;DHT22;23398;50.928;7.084;2023-03-15T11:40:33;16.30;47.10
37560;DHT22;23398;50.928;7.084;2023-03-15T11:43:05;16.30;47.50
37560;DHT22;23398;50.928;7.084;2023-03-15T11:45:54;16.30;47.40
37560;DHT22;23398;50.928;7.084;2023-03-15T11:50:46;16.30;47.20
37560;DHT22;23398;50.928;7.084;2023-03-15T11:53:13;16.30;46.40
37560;DHT22;23398;50.928;7.084;2023-03-15T11:55:39;16.30;46.80
37560;DHT22;23398;50.928;7.084;2023-03-15T12:01:09;16.30;46.20
37560;DHT22;23398;50.928;7.084;2023-03-15T12:08:53;16.10;46.10
37560;DHT22;23398;50.928;7.084;2023-03-15T12:16:29;15.80;44.80
37560;DHT22;23398;50.928;7.084;2023-03-15T12:19:00;15.70;45.40
37560;DHT22;23398;50.928;7.084;2023-03-15T12:21:37;15.60;45.70
37560;DHT22;23398;50.928;7.084;2023-03-15T12:24:05;15.40;45.30
37560;DHT22;23398;50.928;7.084;2023-03-15T12:29:25;15.30;45.80
37560;DHT22;23398;50.928;7.084;2023-03-15T12:34:33;15.20;45.80
37560;DHT22;23398;50.928;7.084;2023-03-15T12:37:06;15.20;45.90
37560;DHT22;23398;50.928;7.084;2023-03-15T12:39:37;15.20;45.30
37560;DHT22;23398;50.928;7.084;2023-03-15T12:42:03;15.20;45.40
37560;DHT22;23398;50.928;7.084;2023-03-15T12:46:59;15.20;46.20
37560;DHT22;23398;50.928;7.084;2023-03-15T12:54:48;15.40;45.70
37560;DHT22;23398;50.928;7.084;2023-03-15T12:57:22;15.50;45.90
37560;DHT22;23398;50.928;7.084;2023-03-15T12:59:58;15.60;46.50
37560;DHT22;23398;50.928;7.084;2023-03-15T13:02:31;15.70;46.20
37560;DHT22;23398;50.928;7.084;2023-03-15T13:16:31;16.50;45.30
37560;DHT22;23398;50.928;7.084;2023-03-15T13:22:11;16.40;44.10
37560;DHT22;23398;50.928;7.084;2023-03-15T13:24:47;16.40;43.70
37560;DHT22;23398;50.928;7.084;2023-03-15T13:30:32;16.00;43.80
37560;DHT22;23398;50.928;7.084;2023-03-15T13:36:02;15.60;43.40
37560;DHT22;23398;50.928;7.084;2023-03-15T13:38:36;15.30;43.10
37560;DHT22;23398;50.928;7.084;2023-03-15T13:41:13;15.10;43.70
37560;DHT22;23398;50.928;7.084;2023-03-15T13:43:40;14.90;43.80
37560;DHT22;23398;50.928;7.084;2023-03-15T13:46:07;14.70;43.70
37560;DHT22;23398;50.928;7.084;2023-03-15T13:48:35;14.60;43.90
37560;DHT22;23398;50.928;7.084;2023-03-15T13:51:17;14.40;44.00
37560;DHT22;23398;50.928;7.084;2023-03-15T13:53:46;14.20;44.40
37560;DHT22;23398;50.928;7.084;2023-03-15T13:56:17;14.20;45.40
37560;DHT22;23398;50.928;7.084;2023-03-15T13:58:44;14.00;45.10
37560;DHT22;23398;50.928;7.084;2023-03-15T14:01:12;14.00;45.10
37560;DHT22;23398;50.928;7.084;2023-03-15T14:03:40;13.90;45.00
37560;DHT22;23398;50.928;7.084;2023-03-15T14:06:11;13.90;44.80
37560;DHT22;23398;50.928;7.084;2023-03-15T14:08:38;13.80;45.00
37560;DHT22;23398;50.928;7.084;2023-03-15T14:11:36;13.80;44.90
37560;DHT22;23398;50.928;7.084;2023-03-15T14:14:17;13.70;44.50
37560;DHT22;23398;50.928;7.084;2023-03-15T14:16:46;13.60;44.80
37560;DHT22;23398;50.928;7.084;2023-03-15T14:19:16;13.60;44.70
37560;DHT22;23398;50.928;7.084;2023-03-15T14:21:44;13.50;44.80
37560;DHT22;23398;50.928;7.084;2023-03-15T14:24:19;13.60;45.10
37560;DHT22;23398;50.928;7.084;2023-03-15T14:26:52;13.50;44.60
37560;DHT22;23398;50.928;7.084;2023-03-15T14:29:27;13.60;44.40
37560;DHT22;23398;50.928;7.084;2023-03-15T14:31:59;13.60;44.00
37560;DHT22;23398;50.928;7.084;2023-03-15T14:34:46;13.60;43.90
37560;DHT22;23398;50.928;7.084;2023-03-15T14:37:33;13.70;43.20
37560;DHT22;23398;50.928;7.084;2023-03-15T14:42:46;13.80;43.50
37560;DHT22;23398;50.928;7.084;2023-03-15T14:45:12;13.80;44.20
37560;DHT22;23398;50.928;7.084;2023-03-15T14:47:44;13.90;44.10
37560;DHT22;23398;50.928;7.084;2023-03-15T14:50:16;13.90;43.90
37560;DHT22;23398;50.928;7.084;2023-03-15T14:52:43;13.90;44.20
37560;DHT22;23398;50.928;7.084;2023-03-15T14:55:15;13.90;44.20
37560;DHT22;23398;50.928;7.084;2023-03-15T14:57:41;13.90;44.10
37560;DHT22;23398;50.928;7.084;2023-03-15T15:00:10;13.80;44.10
37560;DHT22;23398;50.928;7.084;2023-03-15T15:02:38;13.80;44.20
37560;DHT22;23398;50.928;7.084;2023-03-15T15:05:28;13.70;44.60
37560;DHT22;23398;50.928;7.084;2023-03-15T15:08:09;13.60;43.50
37560;DHT22;23398;50.928;7.084;2023-03-15T15:10:37;13.60;43.90
37560;DHT22;23398;50.928;7.084;2023-03-15T15:13:03;13.50;43.90
37560;DHT22;23398;50.928;7.084;2023-03-15T15:15:29;13.40;43.60
37560;DHT22;23398;50.928;7.084;2023-03-15T15:17:54;13.30;43.40
37560;DHT22;23398;50.928;7.084;2023-03-15T15:20:21;13.20;43.50
37560;DHT22;23398;50.928;7.084;2023-03-15T15:22:47;13.10;43.40
37560;DHT22;23398;50.928;7.084;2023-03-15T15:25:18;13.00;43.50
37560;DHT22;23398;50.928;7.084;2023-03-15T15:27:45;12.90;43.60
37560;DHT22;23398;50.928;7.084;2023-03-15T15:30:16;12.80;43.90
37560;DHT22;23398;50.928;7.084;2023-03-15T15:32:43;12.80;44.40
37560;DHT22;23398;50.928;7.084;2023-03-15T15:35:13;12.70;44.60
37560;DHT22;23398;50.928;7.084;2023-03-15T15:37:40;12.60;44.90
37560;DHT22;23398;50.928;7.084;2023-03-15T15:40:20;12.70;44.80
37560;DHT22;23398;50.928;7.084;2023-03-15T15:42:46;12.50;44.40
37560;DHT22;23398;50.928;7.084;2023-03-15T15:45:14;12.50;44.90
37560;DHT22;23398;50.928;7.084;2023-03-15T15:47:40;12.40;44.90
37560;DHT22;23398;50.928;7.084;2023-03-15T15:50:06;12.40;45.20
37560;DHT22;23398;50.928;7.084;2023-03-15T15:52:36;12.40;45.30
37560;DHT22;23398;50.928;7.084;2023-03-15T15:55:02;12.30;45.10
37560;DHT22;23398;50.928;7.084;2023-03-15T15:57:30;12.30;44.70
37560;DHT22;23398;50.928;7.084;2023-03-15T15:59:56;12.30;44.50
37560;DHT22;23398;50.928;7.084;2023-03-15T16:02:21;12.20;44.60
37560;DHT22;23398;50.928;7.084;2023-03-15T16:04:48;12.20;44.40
37560;DHT22;23398;50.928;7.084;2023-03-15T16:07:14;12.20;44.20
37560;DHT22;23398;50.928;7.084;2023-03-15T16:09:41;12.10;44.00
37560;DHT22;23398;50.928;7.084;2023-03-15T16:12:15;12.10;43.60
37560;DHT22;23398;50.928;7.084;2023-03-15T16:14:42;12.10;43.50
37560;DHT22;23398;50.928;7.084;2023-03-15T16:17:18;12.00;43.70
37560;DHT22;23398;50.928;7.084;2023-03-15T16:19:45;11.90;43.70
37560;DHT22;23398;50.928;7.084;2023-03-15T16:22:11;11.90;44.30
37560;DHT22;23398;50.928;7.084;2023-03-15T16:24:37;11.90;44.60
37560;DHT22;23398;50.928;7.084;2023-03-15T16:27:07;11.90;45.40
37560;DHT22;23398;50.928;7.084;2023-03-15T16:29:46;11.80;45.10
37560;DHT22;23398;50.928;7.084;2023-03-15T16:32:15;11.80;44.70
37560;DHT22;23398;50.928;7.084;2023-03-15T16:34:41;11.80;44.60
37560;DHT22;23398;50.928;7.084;2023-03-15T16:37:11;11.70;44.50
37560;DHT22;23398;50.928;7.084;2023-03-15T16:39:39;11.70;44.50
37560;DHT22;23398;50.928;7.084;2023-03-15T16:42:08;11.60;44.20
37560;DHT22;23398;50.928;7.084;2023-03-15T16:44:35;11.50;44.10
37560;DHT22;23398;50.928;7.084;2023-03-15T16:47:00;11.50;44.20
37560;DHT22;23398;50.928;7.084;2023-03-15T16:49:26;11.40;44.50
37560;DHT22;23398;50.928;7.084;2023-03-15T16:51:52;11.40;44.80
37560;DHT22;23398;50.928;7.084;2023-03-15T16:54:18;11.30;44.80
37560;DHT22;23398;50.928;7.084;2023-03-15T16:56:44;11.20;44.80
37560;DHT22;23398;50.928;7.084;2023-03-15T16:59:14;11.10;44.70
37560;DHT22;23398;50.928;7.084;2023-03-15T17:01:39;11.00;44.80
37560;DHT22;23398;50.928;7.084;2023-03-15T17:04:06;11.00;45.30
37560;DHT22;23398;50.928;7.084;2023-03-15T17:06:32;10.90;45.50